Time;durP1;ratioP1;P1;durP2;ratioP2;P2;SDS_P1;SDS_P2;PMS_P1;PMS_P2;Temp;Humidity;BMP_temperature;BMP_pressure;BME280_temperature;BME280_humidity;BME280_pressure;Samples;Min_cycle;Max_cycle;Signal;HPM_P1;HPM_P2
2023/12/16 00:00:20;;;;;;;13.52;3.63;;;6.70;99.90;;;;;;5090346;28;20452;-72
2023/12/16 00:02:46;;;;;;;17.45;3.67;;;6.80;99.90;;;;;;5075402;28;20753;-72
2023/12/16 00:05:11;;;;;;;13.83;3.00;;;6.70;99.90;;;;;;5091780;28;20742;-73
2023/12/16 00:07:37;;;;;;;12.27;3.10;;;6.70;99.90;;;;;;5094272;28;20495;-72
2023/12/16 00:10:03;;;;;;;10.98;3.17;;;6.70;99.90;;;;;;5090963;28;20483;-72
2023/12/16 00:12:28;;;;;;;13.57;3.33;;;6.70;99.90;;;;;;5093014;28;20845;-72
2023/12/16 00:14:54;;;;;;;11.77;3.10;;;6.80;99.90;;;;;;5089566;28;20916;-73
2023/12/16 00:17:20;;;;;;;10.18;2.63;;;6.80;99.90;;;;;;5090556;28;20412;-72
2023/12/16 00:19:45;;;;;;;12.37;2.90;;;6.80;99.90;;;;;;5089836;28;20416;-73
2023/12/16 00:22:11;;;;;;;12.32;3.05;;;6.80;99.90;;;;;;5092700;28;20438;-73
2023/12/16 00:24:36;;;;;;;16.75;3.25;;;6.80;99.90;;;;;;5094204;28;20397;-73
2023/12/16 00:27:02;;;;;;;12.70;2.70;;;6.80;99.90;;;;;;5095850;28;20437;-72
2023/12/16 00:29:28;;;;;;;11.65;2.72;;;6.80;99.90;;;;;;5075443;28;20523;-73
2023/12/16 00:31:54;;;;;;;11.40;3.17;;;6.80;99.90;;;;;;5096409;28;20798;-72
2023/12/16 00:34:19;;;;;;;12.03;2.60;;;6.80;99.90;;;;;;5093933;28;20797;-73
2023/12/16 00:36:45;;;;;;;12.32;3.15;;;6.80;99.90;;;;;;5092779;28;20834;-73
2023/12/16 00:39:10;;;;;;;12.40;2.67;;;6.70;99.90;;;;;;5090855;28;20488;-73
2023/12/16 00:41:36;;;;;;;12.57;2.63;;;6.70;99.90;;;;;;5092804;28;20402;-73
2023/12/16 00:44:02;;;;;;;11.30;2.50;;;6.70;99.90;;;;;;5092530;28;20405;-73
2023/12/16 00:46:28;;;;;;;10.38;2.60;;;6.70;99.90;;;;;;5091965;28;20406;-73
2023/12/16 00:48:53;;;;;;;10.03;2.00;;;6.60;99.90;;;;;;5090381;28;20405;-73
2023/12/16 00:51:22;;;;;;;11.35;2.80;;;6.60;99.90;;;;;;5093239;28;20542;-73
2023/12/16 00:53:48;;;;;;;8.70;2.30;;;6.60;99.90;;;;;;5089783;28;20419;-73
2023/12/16 00:56:13;;;;;;;9.67;2.00;;;6.60;99.90;;;;;;5096242;28;20410;-73
2023/12/16 00:58:39;;;;;;;11.57;2.38;;;6.50;99.90;;;;;;5092239;28;20463;-73
2023/12/16 01:01:04;;;;;;;9.00;2.10;;;6.50;99.90;;;;;;5092888;28;20498;-73
2023/12/16 01:03:30;;;;;;;10.70;2.58;;;6.50;99.90;;;;;;5092324;28;20488;-73
2023/12/16 01:05:56;;;;;;;7.57;1.98;;;6.50;99.90;;;;;;5089125;28;20475;-73
2023/12/16 01:08:22;;;;;;;9.20;2.10;;;6.50;99.90;;;;;;5093300;28;20437;-73
2023/12/16 01:10:48;;;;;;;9.30;2.17;;;6.50;99.90;;;;;;5091451;28;20563;-73
2023/12/16 01:13:13;;;;;;;10.63;1.70;;;6.50;99.60;;;;;;5092952;28;20549;-73
2023/12/16 01:15:39;;;;;;;9.60;2.13;;;6.50;99.60;;;;;;5095175;28;20413;-73
2023/12/16 01:18:04;;;;;;;9.10;2.23;;;6.50;99.20;;;;;;5094313;28;20405;-73
2023/12/16 01:20:30;;;;;;;6.40;1.75;;;6.50;98.80;;;;;;5094252;28;20405;-73
2023/12/16 01:22:56;;;;;;;10.23;2.30;;;6.40;99.00;;;;;;5094864;28;20399;-73
2023/12/16 01:25:21;;;;;;;9.65;1.80;;;6.50;98.10;;;;;;5094916;28;20398;-73
2023/12/16 01:27:48;;;;;;;7.38;1.90;;;6.50;98.00;;;;;;5092467;28;20402;-73
2023/12/16 01:30:13;;;;;;;8.98;1.70;;;6.40;98.10;;;;;;5095280;28;20434;-73
2023/12/16 01:32:39;;;;;;;10.82;1.80;;;6.50;97.90;;;;;;5092205;28;21106;-73
2023/12/16 01:35:05;;;;;;;9.37;2.00;;;6.50;97.90;;;;;;5077085;28;20432;-73
2023/12/16 01:37:31;;;;;;;9.35;1.95;;;6.50;97.90;;;;;;5093253;28;20402;-73
2023/12/16 01:39:57;;;;;;;9.40;1.60;;;6.50;97.80;;;;;;5092209;28;20410;-73
2023/12/16 01:42:22;;;;;;;9.17;1.73;;;6.50;97.80;;;;;;5091938;28;20479;-73
2023/12/16 01:44:48;;;;;;;8.80;1.60;;;6.50;97.80;;;;;;5095701;28;20811;-73
2023/12/16 01:47:15;;;;;;;7.77;1.60;;;6.50;97.50;;;;;;5092495;28;20433;-73
2023/12/16 01:49:41;;;;;;;12.05;2.08;;;6.50;97.20;;;;;;5082010;28;20433;-73
2023/12/16 01:52:07;;;;;;;8.00;1.60;;;6.40;97.40;;;;;;5075265;28;20414;-73
2023/12/16 01:54:33;;;;;;;7.35;1.40;;;6.40;97.30;;;;;;5096243;28;20409;-73
2023/12/16 01:57:01;;;;;;;10.33;2.00;;;6.50;96.90;;;;;;5092738;28;20900;-73
2023/12/16 01:59:27;;;;;;;8.05;1.65;;;6.40;97.20;;;;;;5093839;28;20414;-73
2023/12/16 02:01:54;;;;;;;8.43;1.65;;;6.40;97.00;;;;;;5091053;28;20535;-73
2023/12/16 02:04:19;;;;;;;8.68;1.48;;;6.40;96.90;;;;;;5093667;28;21022;-73
2023/12/16 02:06:45;;;;;;;8.35;1.88;;;6.40;96.80;;;;;;5091293;28;20402;-73
2023/12/16 02:09:14;;;;;;;7.13;1.47;;;6.50;96.50;;;;;;5076002;28;20547;-73
2023/12/16 02:11:39;;;;;;;8.95;1.70;;;6.40;96.00;;;;;;5089519;28;20449;-73
2023/12/16 02:14:06;;;;;;;8.07;1.55;;;6.40;95.70;;;;;;5092708;28;20422;-73
2023/12/16 02:16:31;;;;;;;9.88;1.85;;;6.40;95.40;;;;;;5089613;28;20869;-73
2023/12/16 02:18:57;;;;;;;7.93;1.40;;;6.40;95.70;;;;;;5091198;28;20394;-73
2023/12/16 02:21:23;;;;;;;9.70;1.83;;;6.30;95.80;;;;;;5089412;28;20434;-73
2023/12/16 02:23:48;;;;;;;8.88;1.50;;;6.30;95.60;;;;;;5090291;28;20950;-73
2023/12/16 02:26:14;;;;;;;8.47;1.63;;;6.30;95.40;;;;;;5088467;28;20405;-73
2023/12/16 02:28:40;;;;;;;8.83;1.43;;;6.30;95.60;;;;;;5088466;28;20488;-73
2023/12/16 02:31:05;;;;;;;9.00;1.83;;;6.20;95.50;;;;;;5089699;28;20421;-73
2023/12/16 02:33:31;;;;;;;7.20;1.53;;;6.20;95.30;;;;;;5089102;28;20402;-73
2023/12/16 02:35:56;;;;;;;8.13;1.37;;;6.10;95.20;;;;;;5088087;28;20792;-73
2023/12/16 02:38:22;;;;;;;10.38;1.88;;;6.10;95.40;;;;;;5089445;28;20397;-73
2023/12/16 02:40:48;;;;;;;7.43;1.43;;;6.10;95.30;;;;;;5087326;28;20475;-73
2023/12/16 02:43:14;;;;;;;7.35;1.38;;;6.00;95.20;;;;;;5088960;28;20402;-73
2023/12/16 02:45:40;;;;;;;9.53;2.37;;;6.00;95.50;;;;;;5079249;28;20420;-73
2023/12/16 02:48:05;;;;;;;9.15;1.50;;;6.00;95.30;;;;;;5087454;28;20406;-73
2023/12/16 02:50:31;;;;;;;8.27;1.70;;;6.00;95.50;;;;;;5091256;28;20437;-73
2023/12/16 02:52:57;;;;;;;6.63;1.50;;;5.90;95.60;;;;;;5097512;28;20421;-74
2023/12/16 02:55:22;;;;;;;11.15;1.80;;;5.90;95.60;;;;;;5091829;28;20456;-73
2023/12/16 02:57:48;;;;;;;8.38;1.30;;;5.90;95.60;;;;;;5101322;28;20443;-73
2023/12/16 03:00:14;;;;;;;8.60;1.40;;;5.90;96.00;;;;;;5080170;28;20406;-73
2023/12/16 03:02:40;;;;;;;9.23;1.67;;;5.90;95.70;;;;;;5099137;28;20504;-73
2023/12/16 03:05:06;;;;;;;8.77;1.60;;;5.90;95.60;;;;;;5097147;28;20412;-73
2023/12/16 03:07:31;;;;;;;8.73;1.40;;;5.90;95.60;;;;;;5096920;28;20493;-73
2023/12/16 03:09:57;;;;;;;9.63;1.48;;;5.80;95.30;;;;;;5086612;28;20442;-73
2023/12/16 03:12:24;;;;;;;9.97;1.77;;;5.80;95.40;;;;;;5099686;28;20402;-73
2023/12/16 03:14:50;;;;;;;8.93;1.50;;;5.80;95.40;;;;;;5103575;28;20484;-73
2023/12/16 03:17:16;;;;;;;6.90;1.13;;;5.70;95.40;;;;;;5090902;28;20430;-73
2023/12/16 03:19:41;;;;;;;8.53;1.50;;;5.70;95.70;;;;;;5093012;28;20441;-73
2023/12/16 03:22:08;;;;;;;10.25;1.63;;;5.70;95.50;;;;;;5097564;28;20396;-73
2023/12/16 03:24:33;;;;;;;7.45;1.60;;;5.70;95.70;;;;;;5098882;28;20765;-73
2023/12/16 03:26:59;;;;;;;9.98;1.80;;;5.70;95.70;;;;;;5103419;28;20433;-73
2023/12/16 03:29:24;;;;;;;10.87;1.63;;;5.70;95.80;;;;;;5097526;28;20426;-73
2023/12/16 03:31:50;;;;;;;11.95;1.73;;;5.60;95.80;;;;;;5103522;28;20396;-73
2023/12/16 03:34:16;;;;;;;9.97;1.60;;;5.70;95.80;;;;;;5098929;28;20408;-73
2023/12/16 03:36:42;;;;;;;8.20;1.70;;;5.60;95.70;;;;;;5102131;28;20402;-72
2023/12/16 03:39:07;;;;;;;11.10;1.80;;;5.60;95.80;;;;;;5097770;28;20398;-73
2023/12/16 03:41:34;;;;;;;8.60;1.80;;;5.60;95.80;;;;;;5101855;28;20404;-73
2023/12/16 03:44:00;;;;;;;10.95;1.70;;;5.60;96.00;;;;;;5096507;28;20795;-73
2023/12/16 03:46:26;;;;;;;9.53;1.80;;;5.50;96.10;;;;;;5100766;28;20519;-73
2023/12/16 03:48:52;;;;;;;10.60;2.30;;;5.50;96.20;;;;;;5094287;28;20397;-73
2023/12/16 03:51:21;;;;;;;10.75;1.88;;;5.50;96.30;;;;;;5093668;28;20432;-73
2023/12/16 03:53:46;;;;;;;8.68;2.00;;;5.40;96.50;;;;;;5087599;28;20397;-73
2023/12/16 03:56:12;;;;;;;9.38;2.03;;;5.40;96.60;;;;;;5087917;28;20394;-73
2023/12/16 03:58:38;;;;;;;13.23;2.47;;;5.40;96.80;;;;;;5088446;28;20988;-73
2023/12/16 04:01:04;;;;;;;14.07;2.27;;;5.50;96.90;;;;;;5101511;28;20396;-73
2023/12/16 04:03:30;;;;;;;11.68;2.00;;;5.40;96.90;;;;;;5094659;28;20441;-73
2023/12/16 04:05:56;;;;;;;9.80;1.90;;;5.40;97.10;;;;;;5100021;28;20432;-73
2023/12/16 04:08:21;;;;;;;8.60;2.00;;;5.50;97.30;;;;;;5093849;28;20475;-73
2023/12/16 04:10:47;;;;;;;10.93;2.20;;;5.50;97.40;;;;;;5099946;28;20887;-73
2023/12/16 04:13:15;;;;;;;11.75;2.42;;;5.50;97.50;;;;;;5093715;28;20768;-73
2023/12/16 04:15:40;;;;;;;11.68;2.08;;;5.50;97.40;;;;;;5093624;28;20830;-73
2023/12/16 04:18:06;;;;;;;11.87;2.40;;;5.50;97.40;;;;;;5094491;28;20484;-73
2023/12/16 04:20:32;;;;;;;10.77;2.10;;;5.40;97.50;;;;;;5101121;28;20496;-73
2023/12/16 04:22:58;;;;;;;9.55;1.90;;;5.40;97.50;;;;;;5094194;28;20895;-73
2023/12/16 04:25:23;;;;;;;10.57;2.30;;;5.40;97.50;;;;;;5102588;28;20403;-73
2023/12/16 04:27:49;;;;;;;14.07;2.37;;;5.40;97.50;;;;;;5086394;28;20410;-73
2023/12/16 04:30:15;;;;;;;11.35;2.50;;;5.40;97.60;;;;;;5084121;28;20428;-73
2023/12/16 04:32:40;;;;;;;12.85;2.88;;;5.40;97.60;;;;;;5076923;28;20402;-73
2023/12/16 04:35:06;;;;;;;15.07;3.10;;;5.40;97.80;;;;;;5102169;28;20439;-73
2023/12/16 04:37:32;;;;;;;11.63;2.58;;;5.40;97.90;;;;;;5095625;28;20825;-73
2023/12/16 04:39:57;;;;;;;10.50;2.35;;;5.50;98.20;;;;;;5102360;28;20404;-73
2023/12/16 04:42:23;;;;;;;10.73;2.20;;;5.50;98.40;;;;;;5095702;28;20416;-73
2023/12/16 04:44:48;;;;;;;9.83;2.30;;;5.50;98.50;;;;;;5102298;28;20774;-73
2023/12/16 04:47:14;;;;;;;14.68;2.92;;;5.60;98.60;;;;;;5095544;28;20402;-73
2023/12/16 04:49:41;;;;;;;10.93;2.00;;;5.70;98.50;;;;;;5084063;28;20435;-73
2023/12/16 04:52:06;;;;;;;11.23;2.83;;;5.70;98.50;;;;;;5096742;28;20412;-73
2023/12/16 04:54:32;;;;;;;13.10;3.20;;;5.70;98.40;;;;;;5094338;28;20501;-73
2023/12/16 04:56:57;;;;;;;9.70;2.50;;;5.70;98.10;;;;;;5087604;28;20806;-73
2023/12/16 04:59:23;;;;;;;14.20;2.30;;;5.70;97.90;;;;;;5100653;28;20786;-73
2023/12/16 05:01:49;;;;;;;16.87;2.97;;;5.70;97.80;;;;;;5096129;28;20417;-73
2023/12/16 05:04:14;;;;;;;14.90;2.38;;;5.70;97.80;;;;;;5101824;28;20396;-73
2023/12/16 05:06:40;;;;;;;15.88;2.78;;;5.60;97.90;;;;;;5093435;28;20489;-73
2023/12/16 05:09:10;;;;;;;13.57;2.63;;;5.60;98.10;;;;;;5094543;28;20771;-73
2023/12/16 05:11:35;;;;;;;13.27;2.72;;;5.60;98.30;;;;;;5097712;28;20410;-73
2023/12/16 05:14:01;;;;;;;12.38;2.45;;;5.70;98.50;;;;;;5104944;28;20401;-73
2023/12/16 05:16:27;;;;;;;13.67;2.30;;;5.70;98.80;;;;;;5098466;28;20434;-73
2023/12/16 05:18:54;;;;;;;14.27;2.70;;;5.70;98.90;;;;;;5103733;28;20408;-73
2023/12/16 05:21:20;;;;;;;12.07;2.45;;;5.80;98.90;;;;;;5097332;28;20445;-73
2023/12/16 05:23:46;;;;;;;14.37;2.50;;;5.90;98.90;;;;;;5102371;28;20411;-72
2023/12/16 05:26:11;;;;;;;12.80;2.40;;;5.80;98.90;;;;;;5091178;28;20402;-73
2023/12/16 05:28:37;;;;;;;14.48;2.58;;;5.90;99.00;;;;;;5104495;28;20483;-73
2023/12/16 05:31:03;;;;;;;13.10;2.63;;;5.90;99.00;;;;;;5097827;28;20417;-73
2023/12/16 05:33:28;;;;;;;13.53;2.63;;;5.90;99.00;;;;;;5102867;28;20465;-73
2023/12/16 05:35:54;;;;;;;15.35;2.92;;;5.90;99.10;;;;;;5097820;28;20831;-73
2023/12/16 05:38:19;;;;;;;15.43;3.00;;;6.00;99.30;;;;;;5101886;28;20994;-73
2023/12/16 05:40:45;;;;;;;16.27;3.43;;;6.00;99.40;;;;;;5095421;28;20408;-73
2023/12/16 05:43:11;;;;;;;24.13;4.32;;;6.10;99.80;;;;;;5101814;28;20432;-73
2023/12/16 05:45:37;;;;;;;15.53;3.20;;;6.10;99.60;;;;;;5096359;28;20442;-73
2023/12/16 05:48:02;;;;;;;13.77;2.97;;;6.20;99.70;;;;;;5101942;28;20458;-73
2023/12/16 05:50:28;;;;;;;16.45;3.22;;;6.20;99.70;;;;;;5094970;28;20419;-73
2023/12/16 05:52:53;;;;;;;14.57;3.23;;;6.30;99.60;;;;;;5101524;28;20412;-73
2023/12/16 05:55:19;;;;;;;15.83;3.20;;;6.30;99.70;;;;;;5090492;28;20479;-73
2023/12/16 05:57:45;;;;;;;18.60;3.60;;;6.30;99.60;;;;;;5105078;28;20404;-73
2023/12/16 06:00:11;;;;;;;19.27;3.27;;;6.40;99.60;;;;;;5097825;28;20402;-73
2023/12/16 06:02:38;;;;;;;18.25;3.45;;;6.40;99.60;;;;;;5102555;28;20439;-73
2023/12/16 06:05:04;;;;;;;15.57;3.17;;;6.40;99.60;;;;;;5090736;28;20840;-74
2023/12/16 06:07:30;;;;;;;17.67;2.95;;;6.40;99.60;;;;;;5103605;28;20463;-73
2023/12/16 06:09:56;;;;;;;14.13;3.30;;;6.40;99.60;;;;;;5097857;28;20437;-73
2023/12/16 06:12:21;;;;;;;20.47;4.10;;;6.40;99.60;;;;;;5104797;28;20496;-73
2023/12/16 06:14:47;;;;;;;15.05;3.53;;;6.40;99.70;;;;;;5097706;28;20495;-73
2023/12/16 06:17:13;;;;;;;18.17;3.78;;;6.40;99.70;;;;;;5104194;28;21001;-73
2023/12/16 06:19:38;;;;;;;20.73;3.97;;;6.40;99.80;;;;;;5097017;28;20406;-74
2023/12/16 06:22:04;;;;;;;19.25;3.90;;;6.40;99.80;;;;;;5103055;28;20812;-73
2023/12/16 06:24:29;;;;;;;14.52;3.15;;;6.40;99.80;;;;;;5096287;28;20529;-74
2023/12/16 06:26:55;;;;;;;19.73;3.87;;;6.40;99.80;;;;;;5102362;28;20482;-74
2023/12/16 06:29:21;;;;;;;19.40;4.05;;;6.40;99.90;;;;;;5096225;28;20452;-73
2023/12/16 06:31:46;;;;;;;17.87;4.17;;;6.40;99.90;;;;;;5095210;28;20912;-74
2023/12/16 06:34:12;;;;;;;19.90;4.43;;;6.40;99.90;;;;;;5094718;28;20402;-73
2023/12/16 06:36:37;;;;;;;22.30;4.68;;;6.40;99.90;;;;;;5101042;28;20404;-73
2023/12/16 06:39:03;;;;;;;23.90;4.90;;;6.40;99.90;;;;;;5094727;28;20485;-73
2023/12/16 06:41:30;;;;;;;20.55;4.70;;;6.40;99.90;;;;;;5101091;28;20400;-73
2023/12/16 06:43:55;;;;;;;21.83;4.93;;;6.40;99.90;;;;;;5094270;28;20436;-74
2023/12/16 06:46:23;;;;;;;23.23;5.00;;;6.40;99.90;;;;;;5100592;28;20827;-73
2023/12/16 06:48:49;;;;;;;22.83;5.78;;;6.40;99.90;;;;;;5094062;28;20463;-73
2023/12/16 06:51:14;;;;;;;28.83;6.22;;;6.40;99.90;;;;;;5100074;28;20429;-73
2023/12/16 06:53:40;;;;;;;23.63;5.43;;;6.40;99.90;;;;;;5088969;28;20461;-73
2023/12/16 06:56:07;;;;;;;33.37;6.50;;;6.40;99.90;;;;;;5094994;28;20405;-73
2023/12/16 06:58:34;;;;;;;25.30;6.32;;;6.40;99.90;;;;;;5097233;28;20934;-73
2023/12/16 07:01:00;;;;;;;27.55;6.43;;;6.40;99.90;;;;;;5102711;28;20470;-73
2023/12/16 07:03:28;;;;;;;27.92;6.70;;;6.40;99.90;;;;;;5096428;28;20899;-73
2023/12/16 07:05:54;;;;;;;38.80;7.45;;;6.40;99.90;;;;;;5087749;28;20424;-73
2023/12/16 07:08:20;;;;;;;31.50;7.20;;;6.40;99.90;;;;;;5096840;28;20481;-73
2023/12/16 07:10:45;;;;;;;32.83;7.82;;;6.40;99.90;;;;;;5102536;28;20781;-73
2023/12/16 07:13:11;;;;;;;36.53;8.80;;;6.40;99.90;;;;;;5095684;28;20438;-73
2023/12/16 07:15:38;;;;;;;38.30;9.43;;;6.40;99.90;;;;;;5094652;28;20864;-73
2023/12/16 07:18:03;;;;;;;38.33;9.20;;;6.40;99.90;;;;;;5097029;28;20404;-73
2023/12/16 07:20:29;;;;;;;37.85;10.27;;;6.40;99.90;;;;;;5101650;28;20408;-73
2023/12/16 07:22:55;;;;;;;46.90;10.57;;;6.40;99.90;;;;;;5094749;28;20413;-73
2023/12/16 07:25:21;;;;;;;52.70;11.20;;;6.40;99.90;;;;;;5095208;28;20408;-73
2023/12/16 07:27:47;;;;;;;45.50;10.73;;;6.50;99.90;;;;;;5095566;28;20406;-73
2023/12/16 07:30:13;;;;;;;46.10;11.50;;;6.50;99.90;;;;;;5101350;28;20519;-73
2023/12/16 07:32:40;;;;;;;46.20;12.07;;;6.40;99.90;;;;;;5093566;28;20416;-73
2023/12/16 07:35:12;;;;;;;45.60;12.60;;;6.50;99.90;;;;;;5093432;28;20402;-74
2023/12/16 07:37:42;;;;;;;46.40;12.77;;;6.50;99.90;;;;;;5089784;28;20412;-73
2023/12/16 07:40:09;;;;;;;49.70;12.98;;;6.50;99.90;;;;;;5099101;28;20447;-73
2023/12/16 07:42:36;;;;;;;55.47;13.85;;;6.50;99.90;;;;;;5087855;28;20413;-73
2023/12/16 07:45:04;;;;;;;47.08;13.80;;;6.50;99.90;;;;;;5099893;28;20921;-73
2023/12/16 07:47:31;;;;;;;44.88;13.70;;;6.50;99.90;;;;;;5095846;28;20406;-73
2023/12/16 07:49:57;;;;;;;47.00;13.57;;;6.50;99.90;;;;;;5097282;28;20996;-73
2023/12/16 07:52:22;;;;;;;52.25;14.18;;;6.50;99.90;;;;;;5077940;28;20414;-74
2023/12/16 07:54:48;;;;;;;45.80;14.23;;;6.50;99.90;;;;;;5089706;28;20406;-73
2023/12/16 07:57:14;;;;;;;53.03;14.00;;;6.60;99.90;;;;;;5089272;28;20487;-73
2023/12/16 07:59:43;;;;;;;54.83;14.43;;;6.60;99.90;;;;;;5081408;28;20408;-73
2023/12/16 08:02:10;;;;;;;54.33;13.60;;;6.50;99.90;;;;;;5079917;28;20972;-73
2023/12/16 08:04:38;;;;;;;46.97;14.13;;;6.60;99.90;;;;;;5081429;28;20470;-73
2023/12/16 08:07:04;;;;;;;50.92;13.98;;;6.60;99.90;;;;;;5096074;28;20784;-74
2023/12/16 08:09:30;;;;;;;52.15;14.40;;;6.60;99.90;;;;;;5087777;28;20414;-73
2023/12/16 08:11:58;;;;;;;44.17;13.52;;;6.60;99.90;;;;;;5087609;28;20452;-73
2023/12/16 08:14:33;;;;;;;56.80;15.65;;;6.60;99.90;;;;;;5080152;28;20410;-73
2023/12/16 08:16:59;;;;;;;50.00;14.60;;;6.60;99.90;;;;;;5089087;28;20456;-73
2023/12/16 08:19:24;;;;;;;53.97;15.30;;;6.60;99.90;;;;;;5081800;28;20433;-73
2023/12/16 08:21:50;;;;;;;53.08;15.98;;;6.60;99.90;;;;;;5081667;28;20412;-73
2023/12/16 08:24:16;;;;;;;53.03;16.40;;;6.60;99.90;;;;;;5077756;28;20409;-74
2023/12/16 08:26:41;;;;;;;56.53;15.85;;;6.60;99.90;;;;;;5075223;28;20415;-73
2023/12/16 08:29:07;;;;;;;59.90;17.07;;;6.60;99.90;;;;;;5082645;28;20444;-73
2023/12/16 08:31:33;;;;;;;54.97;16.50;;;6.70;99.90;;;;;;5079818;28;20769;-73
2023/12/16 08:33:59;;;;;;;61.38;17.92;;;6.60;99.90;;;;;;5074038;28;20441;-73
2023/12/16 08:36:25;;;;;;;61.47;17.40;;;6.70;99.90;;;;;;5083556;28;20430;-73
2023/12/16 08:38:50;;;;;;;55.47;17.10;;;6.70;99.90;;;;;;5096403;28;20406;-73
2023/12/16 08:41:16;;;;;;;59.87;16.83;;;6.70;99.90;;;;;;5097570;28;20408;-73
2023/12/16 08:43:42;;;;;;;58.90;17.77;;;6.70;99.90;;;;;;5077863;28;20472;-73
2023/12/16 08:46:08;;;;;;;56.50;17.10;;;6.70;99.90;;;;;;5102109;28;20769;-73
2023/12/16 08:48:35;;;;;;;55.03;17.10;;;6.70;99.90;;;;;;5101608;28;20394;-73
2023/12/16 08:51:01;;;;;;;63.42;17.48;;;6.70;99.90;;;;;;5101576;28;20481;-73
2023/12/16 08:53:27;;;;;;;62.83;17.40;;;6.70;99.90;;;;;;5099056;28;20429;-75
2023/12/16 08:55:52;;;;;;;62.15;17.48;;;6.80;99.90;;;;;;5086691;28;20404;-73
2023/12/16 08:58:18;;;;;;;62.42;18.85;;;6.80;99.90;;;;;;5080585;28;20421;-74
2023/12/16 09:00:44;;;;;;;61.40;18.60;;;6.80;99.90;;;;;;5083804;28;20410;-74
2023/12/16 09:03:13;;;;;;;58.53;17.37;;;6.80;99.90;;;;;;5079400;28;20776;-75
2023/12/16 09:05:39;;;;;;;66.95;18.92;;;6.80;99.90;;;;;;5083399;28;20542;-75
2023/12/16 09:08:04;;;;;;;64.88;18.95;;;6.80;99.90;;;;;;5084956;28;20488;-76
2023/12/16 09:10:30;;;;;;;75.07;19.20;;;6.80;99.90;;;;;;5063637;28;20431;-75
2023/12/16 09:12:55;;;;;;;61.63;18.50;;;6.90;99.90;;;;;;5087370;28;20539;-74
2023/12/16 09:15:21;;;;;;;62.00;17.45;;;6.90;99.90;;;;;;5086842;28;20404;-74
2023/12/16 09:17:47;;;;;;;67.53;19.63;;;6.90;99.90;;;;;;5092512;28;21157;-73
2023/12/16 09:20:13;;;;;;;66.63;18.60;;;6.90;99.90;;;;;;5097500;28;20479;-72
2023/12/16 09:22:39;;;;;;;70.97;20.42;;;6.90;99.90;;;;;;5098343;28;20446;-73
2023/12/16 09:25:06;;;;;;;59.88;19.23;;;6.90;99.90;;;;;;5084988;28;20457;-73
2023/12/16 09:27:32;;;;;;;65.40;19.08;;;7.00;99.90;;;;;;5088086;28;20463;-72
2023/12/16 09:29:58;;;;;;;68.20;20.25;;;7.00;99.90;;;;;;5090691;28;20440;-73
2023/12/16 09:32:24;;;;;;;67.70;20.37;;;7.00;99.90;;;;;;5088693;28;20477;-73
2023/12/16 09:34:49;;;;;;;58.37;19.33;;;7.00;99.90;;;;;;5085276;28;20525;-73
2023/12/16 09:37:15;;;;;;;57.90;19.02;;;7.10;99.90;;;;;;5089731;28;20415;-73
2023/12/16 09:39:41;;;;;;;54.10;18.27;;;7.10;99.90;;;;;;5086205;28;20434;-73
2023/12/16 09:42:07;;;;;;;62.35;20.08;;;7.10;99.90;;;;;;5090905;28;20448;-73
2023/12/16 09:44:36;;;;;;;61.57;20.27;;;7.10;99.90;;;;;;5089744;28;20958;-73
2023/12/16 09:47:03;;;;;;;68.17;20.60;;;7.10;99.90;;;;;;5089184;28;20418;-73
2023/12/16 09:49:30;;;;;;;59.08;19.52;;;7.10;99.90;;;;;;5091153;28;20421;-73
2023/12/16 09:51:56;;;;;;;64.15;19.42;;;7.20;99.90;;;;;;5089472;28;20479;-73
2023/12/16 09:54:22;;;;;;;69.10;20.98;;;7.20;99.90;;;;;;5087851;28;20830;-73
2023/12/16 09:56:49;;;;;;;59.70;19.93;;;7.20;99.90;;;;;;5094731;28;20472;-73
2023/12/16 09:59:20;;;;;;;53.80;19.80;;;7.20;99.90;;;;;;5094877;28;20420;-74
2023/12/16 10:02:02;;;;;;;61.83;20.70;;;7.20;99.90;;;;;;5089213;28;20434;-73
2023/12/16 10:04:28;;;;;;;55.55;19.20;;;7.20;99.90;;;;;;5097883;28;20464;-73
2023/12/16 10:06:54;;;;;;;61.75;20.65;;;7.30;99.90;;;;;;5095008;28;20433;-73
2023/12/16 10:09:20;;;;;;;58.13;20.33;;;7.20;99.90;;;;;;5102571;28;20416;-74
2023/12/16 10:11:51;;;;;;;57.50;19.77;;;7.30;99.90;;;;;;5096914;28;20427;-74
2023/12/16 10:14:16;;;;;;;60.55;20.90;;;7.20;99.90;;;;;;5087761;28;20426;-74
2023/12/16 10:16:47;;;;;;;58.67;20.27;;;7.30;99.90;;;;;;5086561;28;20424;-73
2023/12/16 10:19:12;;;;;;;55.75;19.83;;;7.30;99.90;;;;;;5096168;28;20404;-73
2023/12/16 10:21:39;;;;;;;52.00;19.60;;;7.30;99.90;;;;;;5097828;28;20425;-73
2023/12/16 10:24:05;;;;;;;57.17;20.02;;;7.30;99.90;;;;;;5078318;28;20407;-74
2023/12/16 10:26:35;;;;;;;59.72;20.13;;;7.30;99.90;;;;;;5084385;28;20823;-74
2023/12/16 10:29:05;;;;;;;55.92;20.38;;;7.30;99.90;;;;;;5088726;28;20432;-74
2023/12/16 10:31:31;;;;;;;53.90;20.42;;;7.40;99.90;;;;;;5070031;28;20987;-74
2023/12/16 10:34:01;;;;;;;62.60;20.20;;;7.30;99.90;;;;;;5089661;28;20433;-73
2023/12/16 10:36:29;;;;;;;56.80;19.77;;;7.40;99.90;;;;;;5091278;28;20499;-73
2023/12/16 10:38:54;;;;;;;60.85;21.63;;;7.40;99.90;;;;;;5087153;28;20406;-73
2023/12/16 10:41:21;;;;;;;54.33;20.08;;;7.40;99.90;;;;;;5089398;28;20772;-73
2023/12/16 10:43:47;;;;;;;57.17;20.33;;;7.40;99.90;;;;;;5089084;28;20433;-73
2023/12/16 10:46:16;;;;;;;58.00;21.97;;;7.40;99.90;;;;;;5092111;28;21019;-74
2023/12/16 10:48:45;;;;;;;57.83;21.23;;;7.40;99.90;;;;;;5086553;28;20858;-73
2023/12/16 10:51:13;;;;;;;57.60;22.42;;;7.40;99.90;;;;;;5085721;28;20445;-74
2023/12/16 10:53:45;;;;;;;53.90;20.90;;;7.30;99.90;;;;;;5087701;28;20446;-73
2023/12/16 10:56:17;;;;;;;62.13;22.95;;;7.30;99.90;;;;;;5087232;28;20418;-74
2023/12/16 10:59:01;;;;;;;55.28;20.65;;;7.40;99.90;;;;;;5092536;28;20468;-74
2023/12/16 11:01:29;;;;;;;57.58;21.67;;;7.40;99.90;;;;;;5090866;28;20908;-73
2023/12/16 11:04:12;;;;;;;61.92;21.42;;;7.40;99.90;;;;;;5095214;28;20943;-73
2023/12/16 11:06:51;;;;;;;57.50;23.20;;;7.40;99.90;;;;;;5085027;28;20430;-74
2023/12/16 11:09:18;;;;;;;56.92;21.50;;;7.40;99.90;;;;;;5083581;28;20950;-74
2023/12/16 11:11:45;;;;;;;59.22;22.85;;;7.40;99.90;;;;;;5094678;28;20425;-74
2023/12/16 11:14:11;;;;;;;54.72;20.90;;;7.40;99.90;;;;;;5094370;28;20404;-73
2023/12/16 11:16:43;;;;;;;55.10;22.27;;;7.40;99.90;;;;;;5095290;28;20425;-73
2023/12/16 11:19:11;;;;;;;55.90;22.08;;;7.40;99.90;;;;;;5089607;28;20433;-74
2023/12/16 11:21:40;;;;;;;62.20;22.98;;;7.40;99.90;;;;;;5087409;28;20420;-70
2023/12/16 11:24:06;;;;;;;59.55;22.27;;;7.40;99.90;;;;;;5094248;28;20417;-70
2023/12/16 11:26:34;;;;;;;64.50;22.13;;;7.50;99.90;;;;;;5090243;28;20418;-72
2023/12/16 11:29:02;;;;;;;64.22;22.90;;;7.50;99.90;;;;;;5093819;28;20462;-73
2023/12/16 11:31:29;;;;;;;56.80;21.63;;;7.50;99.90;;;;;;5087294;28;20471;-73
2023/12/16 11:33:55;;;;;;;59.33;22.50;;;7.50;99.90;;;;;;5088941;28;20465;-73
2023/12/16 11:36:48;;;;;;;54.22;21.55;;;7.50;99.90;;;;;;5095991;28;20444;-73
2023/12/16 11:39:40;;;;;;;71.13;23.67;;;7.50;99.90;;;;;;5077735;28;20417;-73
2023/12/16 11:42:10;;;;;;;70.40;23.38;;;7.50;99.90;;;;;;5082046;28;20432;-73
2023/12/16 11:44:54;;;;;;;73.50;24.95;;;7.60;99.90;;;;;;5090511;28;20427;-73
2023/12/16 11:47:23;;;;;;;64.00;22.38;;;7.60;99.90;;;;;;5092085;28;20505;-73
2023/12/16 11:49:49;;;;;;;65.85;22.75;;;7.60;99.90;;;;;;5089572;28;20920;-73
2023/12/16 11:52:20;;;;;;;60.67;21.23;;;7.60;99.90;;;;;;5085280;28;20879;-73
2023/12/16 11:54:53;;;;;;;49.45;18.83;;;7.70;99.90;;;;;;5090032;28;20456;-73
2023/12/16 11:57:23;;;;;;;46.33;17.33;;;7.80;99.90;;;;;;5097648;28;20948;-73
2023/12/16 11:59:53;;;;;;;47.03;16.75;;;7.90;99.90;;;;;;5091088;28;20506;-73
2023/12/16 12:02:19;;;;;;;40.73;15.47;;;8.00;99.90;;;;;;5095604;28;20470;-73
2023/12/16 12:04:46;;;;;;;41.42;15.75;;;8.10;99.90;;;;;;5089537;28;20414;-73
2023/12/16 12:07:13;;;;;;;39.40;14.32;;;8.20;99.90;;;;;;5098925;28;20794;-73
2023/12/16 12:09:43;;;;;;;29.38;13.63;;;8.20;99.90;;;;;;5086956;28;20430;-73
2023/12/16 12:12:10;;;;;;;28.73;11.77;;;8.30;99.90;;;;;;5112464;28;20437;-73
2023/12/16 12:14:45;;;;;;;29.27;11.90;;;8.30;99.90;;;;;;5085964;28;21018;-73
2023/12/16 12:17:10;;;;;;;28.40;12.48;;;8.40;99.90;;;;;;5093829;28;20481;-73
2023/12/16 12:19:36;;;;;;;27.20;11.98;;;8.40;99.90;;;;;;5096716;28;20940;-73
2023/12/16 12:22:02;;;;;;;24.60;11.47;;;8.50;99.90;;;;;;5095562;28;20416;-73
2023/12/16 12:24:28;;;;;;;25.73;11.43;;;8.50;99.90;;;;;;5086770;28;20422;-73
2023/12/16 12:26:53;;;;;;;27.90;10.97;;;8.50;99.90;;;;;;5098848;28;20952;-73
2023/12/16 12:29:19;;;;;;;26.80;11.55;;;8.60;99.90;;;;;;5076242;28;20429;-73
2023/12/16 12:31:46;;;;;;;23.70;10.80;;;8.60;99.90;;;;;;5097167;28;20423;-74
2023/12/16 12:34:23;;;;;;;23.65;10.52;;;8.60;99.90;;;;;;5092293;28;20409;-73
2023/12/16 12:36:54;;;;;;;19.88;9.70;;;8.60;99.90;;;;;;5093887;28;20844;-73
2023/12/16 12:39:20;;;;;;;20.52;9.38;;;8.60;99.90;;;;;;5098156;28;20455;-74
2023/12/16 12:42:02;;;;;;;21.80;9.85;;;8.70;99.90;;;;;;5091405;28;20497;-74